Time;durP1;ratioP1;P1;durP2;ratioP2;P2;SDS_P1;SDS_P2;PMS_P1;PMS_P2;Temp;Humidity;BMP_temperature;BMP_pressure;BME280_temperature;BME280_humidity;BME280_pressure;Samples;Min_cycle;Max_cycle;Signal;HPM_P1;HPM_P2
2022/08/19 00:01:57;;;;;;;0.87;0.87;;;;;;;19.81;95.84;94983.50;4317039;32;20189;-57
2022/08/19 00:04:27;;;;;;;4.30;0.97;;;;;;;19.84;95.41;94984.72;4353318;32;20299;-58
2022/08/19 00:06:53;;;;;;;0.80;0.80;;;;;;;19.99;94.72;94999.94;4341269;32;20185;-56
2022/08/19 00:09:21;;;;;;;2.20;1.30;;;;;;;20.08;94.43;95007.78;4340587;32;20286;-58
2022/08/19 00:11:49;;;;;;;1.27;1.27;;;;;;;20.05;94.63;94997.75;4324523;32;20203;-57
2022/08/19 00:14:18;;;;;;;0.70;0.70;;;;;;;20.06;94.63;94986.59;4349968;32;20189;-56
2022/08/19 00:16:45;;;;;;;1.20;1.20;;;;;;;20.04;94.84;94983.50;4364222;32;20193;-57
2022/08/19 00:19:12;;;;;;;0.80;0.80;;;;;;;20.07;94.42;94979.31;4339416;32;20177;-56
2022/08/19 00:21:39;;;;;;;2.23;1.00;;;;;;;20.05;94.70;94960.81;4306644;32;20242;-57
2022/08/19 00:24:07;;;;;;;1.17;1.13;;;;;;;19.99;95.21;94962.25;4351061;32;20318;-57
2022/08/19 00:26:34;;;;;;;1.23;1.20;;;;;;;19.82;95.53;94957.38;4344642;32;20203;-55
2022/08/19 00:29:00;;;;;;;1.13;1.13;;;;;;;19.72;95.68;94947.22;4354000;32;20185;-56
2022/08/19 00:31:27;;;;;;;1.47;1.40;;;;;;;19.69;96.23;94951.41;4332022;32;20192;-57
2022/08/19 00:33:55;;;;;;;1.43;1.43;;;;;;;19.67;96.32;94940.22;4342503;32;20192;-57
2022/08/19 00:36:21;;;;;;;0.67;0.67;;;;;;;19.83;95.52;94940.84;4332531;32;20271;-56
2022/08/19 00:38:51;;;;;;;0.87;0.87;;;;;;;19.90;95.44;94943.66;4354462;32;20231;-57
2022/08/19 00:41:21;;;;;;;1.43;1.33;;;;;;;19.76;95.99;94954.19;4371557;32;20185;-55
2022/08/19 00:44:15;;;;;;;1.33;1.23;;;;;;;19.85;95.52;94951.28;4333940;32;20239;-54
2022/08/19 00:46:44;;;;;;;1.43;1.43;;;;;;;19.82;95.82;94943.91;4352314;32;20191;-54
2022/08/19 00:49:35;;;;;;;1.37;1.27;;;;;;;19.67;96.35;94945.59;4334440;32;20188;-58
2022/08/19 00:52:04;;;;;;;1.77;1.70;;;;;;;19.76;96.09;94942.66;4316725;32;20176;-57
2022/08/19 00:54:36;;;;;;;1.43;1.40;;;;;;;19.75;95.50;94925.72;4359569;32;20181;-57
2022/08/19 00:57:07;;;;;;;1.43;1.43;;;;;;;19.67;96.23;94921.38;4360909;32;20203;-57
2022/08/19 00:59:38;;;;;;;0.80;0.80;;;;;;;19.75;95.94;94909.56;4320744;32;20192;-56
2022/08/19 01:02:06;;;;;;;1.73;1.63;;;;;;;19.70;96.20;94915.28;4313738;32;20272;-56
2022/08/19 01:04:32;;;;;;;1.07;1.07;;;;;;;19.72;95.87;94915.69;4330855;32;20232;-60
2022/08/19 01:07:02;;;;;;;1.13;1.13;;;;;;;19.60;96.30;94923.94;4332532;32;20216;-55
2022/08/19 01:09:29;;;;;;;1.87;1.77;;;;;;;19.57;96.52;94924.66;4341236;32;20199;-57
2022/08/19 01:11:56;;;;;;;1.83;1.73;;;;;;;19.70;96.44;94911.81;4320780;33;20196;-55
2022/08/19 01:14:24;;;;;;;2.00;1.90;;;;;;;19.72;96.21;94904.94;4317928;32;20290;-55
2022/08/19 01:17:07;;;;;;;2.30;2.07;;;;;;;19.66;95.98;94910.97;4347109;32;20197;-57
2022/08/19 01:19:37;;;;;;;1.90;1.73;;;;;;;19.61;96.34;94903.97;4345218;32;20177;-54
2022/08/19 01:22:19;;;;;;;2.07;1.97;;;;;;;19.68;96.35;94909.47;4339243;32;20186;-57
2022/08/19 01:24:46;;;;;;;1.17;1.17;;;;;;;19.75;95.67;94906.09;4334192;32;20188;-58
2022/08/19 01:27:13;;;;;;;1.40;1.40;;;;;;;19.78;95.55;94910.75;4337752;32;20173;-56
2022/08/19 01:29:41;;;;;;;1.70;1.60;;;;;;;19.71;95.88;94927.59;4331447;32;20177;-56
2022/08/19 01:32:09;;;;;;;2.37;2.27;;;;;;;19.78;95.80;94933.06;4315854;32;20185;-57
2022/08/19 01:34:36;;;;;;;2.57;2.37;;;;;;;19.76;96.03;94932.66;4335714;32;20177;-56
2022/08/19 01:37:11;;;;;;;2.20;1.60;;;;;;;19.64;96.16;94956.31;4334631;32;20181;-56
2022/08/19 01:39:40;;;;;;;1.47;1.47;;;;;;;19.71;96.14;94953.75;4356000;32;20246;-57
2022/08/19 01:42:10;;;;;;;1.53;1.53;;;;;;;19.74;96.02;94956.50;4329889;32;20213;-58
2022/08/19 01:44:39;;;;;;;1.37;1.37;;;;;;;19.85;95.26;94952.03;4304389;32;20232;-57
2022/08/19 01:47:17;;;;;;;1.73;1.63;;;;;;;19.58;96.22;94965.81;4316566;32;20252;-57
2022/08/19 01:49:45;;;;;;;1.80;1.70;;;;;;;19.61;96.40;94955.13;4338805;32;20185;-56
2022/08/19 01:52:11;;;;;;;1.30;1.23;;;;;;;19.68;95.62;94957.94;4344765;32;20286;-57
2022/08/19 01:54:38;;;;;;;1.37;1.37;;;;;;;19.79;95.44;94969.63;4329748;32;20320;-57
2022/08/19 01:57:11;;;;;;;1.10;1.10;;;;;;;19.75;95.74;94974.19;4324950;32;20190;-57
2022/08/19 01:59:40;;;;;;;1.30;1.30;;;;;;;19.70;95.74;94977.19;4343000;32;20246;-61
2022/08/19 02:02:08;;;;;;;1.47;1.20;;;;;;;19.82;95.67;94979.69;4351609;32;20237;-58
2022/08/19 02:04:38;;;;;;;3.57;1.37;;;;;;;19.89;94.93;94958.28;4351067;32;20200;-57
2022/08/19 02:07:05;;;;;;;2.37;2.27;;;;;;;19.83;95.17;94958.94;4339857;32;20182;-57
2022/08/19 02:09:34;;;;;;;2.20;2.10;;;;;;;19.77;95.25;94961.13;4326556;32;20250;-57
2022/08/19 02:11:59;;;;;;;1.20;1.20;;;;;;;19.71;95.30;94961.81;4354385;32;20227;-57
2022/08/19 02:14:25;;;;;;;1.40;1.40;;;;;;;19.84;95.09;94966.66;4358307;32;20185;-58
2022/08/19 02:16:53;;;;;;;2.27;2.13;;;;;;;19.74;94.74;94982.62;4356969;32;20251;-58
2022/08/19 02:19:20;;;;;;;1.87;1.53;;;;;;;19.88;94.38;94983.63;4356266;32;20296;-56
2022/08/19 02:21:49;;;;;;;2.93;1.20;;;;;;;19.78;94.98;94986.16;4348810;32;20254;-57
2022/08/19 02:24:15;;;;;;;1.50;1.40;;;;;;;19.84;94.48;94982.03;4328303;32;20193;-55
2022/08/19 02:26:43;;;;;;;1.47;1.43;;;;;;;19.66;94.63;94980.94;4324268;32;20225;-56
2022/08/19 02:29:10;;;;;;;2.13;1.97;;;;;;;19.69;94.72;94980.25;4345102;32;20284;-58
2022/08/19 02:31:37;;;;;;;1.83;1.63;;;;;;;19.68;94.48;94984.06;4351953;32;20264;-58
2022/08/19 02:34:04;;;;;;;1.27;1.23;;;;;;;19.82;94.45;94997.75;4345546;32;20353;-57
2022/08/19 02:36:32;;;;;;;1.27;1.27;;;;;;;19.71;94.66;94983.34;4358076;32;20177;-58
2022/08/19 02:39:00;;;;;;;1.33;1.33;;;;;;;19.85;94.47;94986.28;4348239;32;20181;-57
2022/08/19 02:41:32;;;;;;;5.10;1.40;;;;;;;19.72;94.37;94980.31;4351313;32;20264;-56
2022/08/19 02:44:05;;;;;;;1.43;1.33;;;;;;;19.77;93.98;94965.75;4326335;32;20200;-56
2022/08/19 02:46:33;;;;;;;1.57;1.47;;;;;;;19.70;94.56;94942.19;4299508;32;20185;-58
2022/08/19 02:49:04;;;;;;;1.30;1.30;;;;;;;19.65;94.81;94926.34;4265706;33;20175;-63
2022/08/19 02:51:36;;;;;;;1.00;1.00;;;;;;;19.68;94.58;94919.47;4308794;32;20182;-56
2022/08/19 02:54:05;;;;;;;1.43;1.43;;;;;;;19.67;94.41;94918.69;4329920;32;20174;-59
2022/08/19 02:56:39;;;;;;;1.30;1.30;;;;;;;19.64;94.90;94914.03;4339258;32;20169;-56
2022/08/19 02:59:08;;;;;;;1.23;1.23;;;;;;;19.68;94.71;94914.09;4321052;32;20178;-56
2022/08/19 03:01:34;;;;;;;1.17;1.17;;;;;;;19.77;94.08;94909.22;4328204;32;20186;-57
2022/08/19 03:04:04;;;;;;;1.20;1.20;;;;;;;19.82;93.50;94908.91;4319726;33;20193;-55
2022/08/19 03:06:31;;;;;;;1.47;1.47;;;;;;;19.73;93.85;94919.94;4311740;32;20227;-56
2022/08/19 03:08:58;;;;;;;1.30;1.17;;;;;;;19.75;93.79;94925.72;4351694;32;20200;-56
2022/08/19 03:11:30;;;;;;;1.27;1.27;;;;;;;19.78;93.81;94925.00;4316879;32;20215;-55
2022/08/19 03:14:03;;;;;;;1.47;1.43;;;;;;;19.78;93.51;94935.78;4338820;32;20219;-57
2022/08/19 03:16:52;;;;;;;1.77;1.67;;;;;;;19.79;93.39;94931.16;4324631;32;20211;-61
2022/08/19 03:19:21;;;;;;;0.83;0.83;;;;;;;19.66;93.87;94921.75;4319263;32;20185;-57
2022/08/19 03:21:51;;;;;;;1.00;1.00;;;;;;;19.68;93.91;94922.16;4315099;32;20248;-53
2022/08/19 03:24:20;;;;;;;1.10;1.10;;;;;;;19.69;94.10;94926.41;4332346;32;20280;-56
2022/08/19 03:26:50;;;;;;;0.67;0.67;;;;;;;19.83;93.51;94932.00;4353600;32;20185;-56
2022/08/19 03:29:20;;;;;;;1.23;1.23;;;;;;;19.99;93.03;94953.38;4319531;32;20267;-57
2022/08/19 03:31:46;;;;;;;1.40;1.40;;;;;;;20.00;92.52;94946.88;4311872;32;20186;-57
2022/08/19 03:34:20;;;;;;;1.17;1.17;;;;;;;19.84;92.97;94955.87;4328182;32;20185;-57
2022/08/19 03:36:48;;;;;;;1.30;1.30;;;;;;;19.88;93.11;94950.56;4339052;32;20232;-53
2022/08/19 03:39:15;;;;;;;1.40;1.30;;;;;;;19.87;93.53;94946.31;4321107;32;20185;-57
2022/08/19 03:41:44;;;;;;;1.07;1.07;;;;;;;19.87;93.31;94946.31;4307499;32;20273;-56
2022/08/19 03:44:32;;;;;;;1.17;1.17;;;;;;;19.72;93.67;94941.84;4302950;32;20197;-56
2022/08/19 03:47:00;;;;;;;3.50;1.80;;;;;;;19.76;94.04;94943.44;4330134;32;20228;-57
2022/08/19 03:49:30;;;;;;;1.47;1.43;;;;;;;19.82;93.48;94947.37;4345141;32;20181;-57
2022/08/19 03:51:57;;;;;;;0.93;0.93;;;;;;;19.75;93.44;94946.47;4339231;32;20182;-58
2022/08/19 03:54:24;;;;;;;1.07;1.07;;;;;;;19.80;93.49;94943.50;4339922;32;20257;-55
2022/08/19 03:56:54;;;;;;;1.07;1.07;;;;;;;19.71;93.45;94943.75;4326537;32;20221;-57
2022/08/19 03:59:29;;;;;;;1.30;1.30;;;;;;;19.75;93.56;94946.47;4353668;32;20185;-57
2022/08/19 04:02:08;;;;;;;1.37;1.37;;;;;;;19.90;92.91;94942.88;4346192;32;20191;-56
2022/08/19 04:04:38;;;;;;;1.07;1.07;;;;;;;19.94;92.73;94942.94;4348910;32;20195;-53
2022/08/19 04:07:09;;;;;;;0.90;0.90;;;;;;;19.88;92.81;94935.16;4347951;32;20248;-56
2022/08/19 04:09:42;;;;;;;1.50;1.40;;;;;;;19.66;93.82;94944.06;4330410;32;20185;-56
2022/08/19 04:12:07;;;;;;;1.33;1.30;;;;;;;19.72;93.66;94934.53;4328018;32;20225;-58
2022/08/19 04:14:40;;;;;;;1.17;1.17;;;;;;;19.72;93.53;94931.84;4361119;32;20354;-55
2022/08/19 04:17:05;;;;;;;1.03;1.03;;;;;;;19.66;93.47;94925.22;4351029;32;20293;-56
2022/08/19 04:19:36;;;;;;;1.10;1.10;;;;;;;19.75;93.39;94936.50;4350411;32;20173;-57
2022/08/19 04:22:03;;;;;;;1.10;1.10;;;;;;;19.82;93.65;94946.59;4346018;32;20173;-57
2022/08/19 04:24:31;;;;;;;1.60;1.50;;;;;;;19.84;93.09;94945.09;4342432;32;20185;-56
2022/08/19 04:27:00;;;;;;;1.70;1.60;;;;;;;19.79;93.16;94933.84;4343754;32;20182;-55
2022/08/19 04:29:30;;;;;;;1.27;1.27;;;;;;;19.72;93.63;94929.16;4346365;32;20204;-57
2022/08/19 04:31:58;;;;;;;0.90;0.90;;;;;;;19.64;93.87;94949.00;4319805;32;20219;-56
2022/08/19 04:34:27;;;;;;;1.23;1.23;;;;;;;19.76;93.87;94956.13;4309023;32;20194;-56
2022/08/19 04:36:56;;;;;;;1.83;1.73;;;;;;;19.80;92.96;94960.41;4313476;32;20201;-56
2022/08/19 04:42:44;;;;;;;1.50;1.50;;;;;;;19.77;93.73;94971.91;4350029;32;20196;-56
2022/08/19 04:45:13;;;;;;;1.67;1.57;;;;;;;19.94;93.09;94976.03;4348824;32;20211;-57
2022/08/19 04:47:40;;;;;;;1.27;1.27;;;;;;;20.10;91.96;94975.88;4360140;32;20182;-57
2022/08/19 04:50:09;;;;;;;1.90;1.80;;;;;;;20.15;91.98;94984.44;4332170;32;20199;-56
2022/08/19 04:52:42;;;;;;;2.47;2.27;;;;;;;20.05;92.23;94992.34;4352220;32;20177;-57
2022/08/19 04:55:11;;;;;;;1.27;1.17;;;;;;;19.98;92.42;94992.22;4354532;32;20180;-57
2022/08/19 04:57:41;;;;;;;2.20;2.10;;;;;;;19.88;92.81;94993.63;4357353;32;20247;-55
2022/08/19 05:00:08;;;;;;;1.33;1.33;;;;;;;19.92;92.82;94989.09;4315678;32;20515;-56
2022/08/19 05:02:33;;;;;;;5.53;2.37;;;;;;;20.03;92.29;94989.25;4325320;32;20181;-57
2022/08/19 05:05:00;;;;;;;3.77;2.17;;;;;;;20.06;92.14;94999.28;4315602;32;20177;-57
2022/08/19 05:07:27;;;;;;;1.20;1.20;;;;;;;19.94;92.65;95002.19;4343822;32;20240;-56
2022/08/19 05:09:57;;;;;;;1.13;1.13;;;;;;;19.89;92.91;95006.75;4299156;32;20199;-56
2022/08/19 05:12:28;;;;;;;1.77;1.67;;;;;;;19.98;92.71;95011.06;4322550;32;20205;-56
2022/08/19 05:15:01;;;;;;;1.20;1.10;;;;;;;20.07;92.02;95007.00;4334250;32;20253;-56
2022/08/19 05:17:30;;;;;;;2.50;2.40;;;;;;;20.14;91.67;95009.81;4302973;32;20324;-56
2022/08/19 05:22:44;;;;;;;1.90;1.80;;;;;;;19.98;92.49;95005.69;4335695;32;20192;-57
2022/08/19 05:25:25;;;;;;;1.70;1.70;;;;;;;20.05;91.97;95003.13;4308690;32;20170;-54
2022/08/19 05:27:55;;;;;;;1.27;1.27;;;;;;;20.15;91.61;95002.53;4332886;32;20189;-57
2022/08/19 05:30:23;;;;;;;1.23;0.90;;;;;;;20.15;91.75;95000.59;4318516;32;20210;-57
2022/08/19 05:32:52;;;;;;;2.20;2.10;;;;;;;20.12;91.39;94997.84;4336518;32;20212;-56
2022/08/19 05:35:28;;;;;;;1.33;1.33;;;;;;;20.14;90.94;94990.97;4323284;32;20202;-56
2022/08/19 05:37:56;;;;;;;1.60;1.60;;;;;;;20.03;91.83;94990.03;4308673;32;20315;-58
2022/08/19 05:40:52;;;;;;;1.40;1.30;;;;;;;19.78;92.86;94989.62;4341477;32;20185;-57
2022/08/19 05:43:19;;;;;;;1.80;1.70;;;;;;;19.94;92.22;94992.19;4302489;32;20194;-54
2022/08/19 05:45:45;;;;;;;1.43;1.37;;;;;;;19.97;92.13;94987.97;4344535;32;20185;-54
2022/08/19 05:48:12;;;;;;;1.33;1.33;;;;;;;19.78;92.89;94981.53;4334871;32;20177;-57
2022/08/19 05:50:41;;;;;;;1.80;1.70;;;;;;;19.95;92.26;94988.38;4303659;32;20251;-57
2022/08/19 05:53:08;;;;;;;2.67;2.50;;;;;;;19.93;92.12;94984.47;4310409;32;20309;-56
2022/08/19 05:55:38;;;;;;;1.53;1.53;;;;;;;19.99;92.19;94988.41;4294831;32;20182;-58
2022/08/19 05:58:07;;;;;;;5.90;2.17;;;;;;;19.95;92.38;94982.19;4304046;32;20217;-59
2022/08/19 06:00:35;;;;;;;2.33;2.07;;;;;;;20.03;91.95;94981.16;4314676;32;20224;-55
2022/08/19 06:03:03;;;;;;;2.60;1.93;;;;;;;20.11;91.76;94990.91;4333985;32;20199;-60
2022/08/19 06:05:32;;;;;;;1.77;1.67;;;;;;;20.07;91.52;94984.69;4326300;32;20185;-55
2022/08/19 06:07:58;;;;;;;2.30;2.20;;;;;;;20.12;91.42;94987.84;4310578;32;20204;-56
2022/08/19 06:10:27;;;;;;;2.13;2.03;;;;;;;20.04;91.65;94983.50;4320330;32;20251;-56
2022/08/19 06:12:55;;;;;;;2.17;2.07;;;;;;;20.00;92.05;94979.19;4333274;32;20201;-56
2022/08/19 06:15:25;;;;;;;4.47;2.77;;;;;;;19.99;92.35;94993.78;4330942;32;20205;-54
2022/08/19 06:17:52;;;;;;;1.93;1.83;;;;;;;19.99;92.43;94999.94;4338468;32;20185;-53
2022/08/19 06:20:18;;;;;;;1.60;1.53;;;;;;;19.80;93.50;95002.72;4325703;32;20232;-58
2022/08/19 06:22:51;;;;;;;4.03;2.63;;;;;;;19.76;94.18;95008.03;4341933;32;20182;-54
2022/08/19 06:25:18;;;;;;;4.37;3.13;;;;;;;19.86;93.61;94998.59;4342266;32;20351;-56
2022/08/19 06:27:45;;;;;;;3.17;2.97;;;;;;;19.88;93.74;95002.50;4320580;32;20209;-57
2022/08/19 06:30:12;;;;;;;2.50;2.40;;;;;;;20.05;92.81;95003.91;4335255;32;20180;-57
2022/08/19 06:32:38;;;;;;;2.67;2.57;;;;;;;20.15;92.35;95003.31;4339359;32;20252;-53
2022/08/19 06:35:04;;;;;;;3.17;2.97;;;;;;;20.23;91.88;94999.56;4341003;32;20210;-57
2022/08/19 06:37:29;;;;;;;2.40;2.30;;;;;;;20.16;92.32;94993.31;4339423;32;20190;-57
2022/08/19 06:39:55;;;;;;;2.73;2.63;;;;;;;20.14;93.22;94999.06;4344767;32;20181;-57
2022/08/19 06:42:20;;;;;;;3.40;3.23;;;;;;;20.07;93.56;95000.84;4343937;32;20240;-56
2022/08/19 06:44:48;;;;;;;3.37;3.07;;;;;;;19.95;94.22;94998.38;4339596;32;20201;-57
2022/08/19 06:47:17;;;;;;;3.80;3.47;;;;;;;19.91;94.87;94992.91;4338799;32;20181;-57
2022/08/19 06:49:42;;;;;;;3.87;2.40;;;;;;;19.90;95.32;94997.53;4345016;32;20177;-57
2022/08/19 06:52:11;;;;;;;2.60;2.43;;;;;;;19.85;95.27;95000.50;4341551;32;20193;-57
2022/08/19 06:54:36;;;;;;;4.03;3.07;;;;;;;20.02;94.50;95003.84;4346850;32;20235;-57
2022/08/19 06:57:02;;;;;;;3.07;2.97;;;;;;;19.97;95.54;94996.84;4353193;32;20201;-54
2022/08/19 06:59:29;;;;;;;3.83;3.13;;;;;;;20.00;94.98;94998.81;4351196;32;20184;-55
2022/08/19 07:01:56;;;;;;;2.60;2.47;;;;;;;20.14;94.10;94996.34;4352733;32;20181;-57
2022/08/19 07:04:28;;;;;;;3.50;3.27;;;;;;;20.07;95.11;94995.47;4356094;32;20199;-58
2022/08/19 07:07:13;;;;;;;5.73;4.53;;;;;;;19.98;95.30;94992.22;4365903;32;20241;-55
2022/08/19 07:09:42;;;;;;;3.23;3.03;;;;;;;19.77;96.53;94993.44;4347992;32;20203;-55
2022/08/19 07:12:13;;;;;;;3.10;2.90;;;;;;;19.77;96.56;94985.37;4359861;32;20264;-54
2022/08/19 07:14:39;;;;;;;3.37;3.03;;;;;;;19.86;95.31;94991.28;4355905;32;20228;-58
2022/08/19 07:17:10;;;;;;;2.80;2.60;;;;;;;19.92;95.29;94985.63;4372854;32;20197;-55
2022/08/19 07:19:37;;;;;;;3.70;3.40;;;;;;;20.06;95.00;94977.75;4363410;32;20241;-53
2022/08/19 07:22:05;;;;;;;3.83;3.53;;;;;;;20.20;94.15;94972.56;4369927;32;20208;-56
2022/08/19 07:24:31;;;;;;;2.77;2.60;;;;;;;20.02;95.46;94963.44;4352228;32;20210;-58
2022/08/19 07:27:00;;;;;;;2.63;2.53;;;;;;;20.10;94.60;94957.81;4369209;32;20303;-57
2022/08/19 07:29:27;;;;;;;3.53;3.33;;;;;;;20.21;93.72;94952.56;4373677;32;20267;-57
2022/08/19 07:31:56;;;;;;;4.07;3.77;;;;;;;20.24;93.25;94949.94;4356412;32;20195;-56
2022/08/19 07:34:22;;;;;;;2.57;2.47;;;;;;;20.27;94.25;94939.56;4352079;32;20222;-54
2022/08/19 07:36:48;;;;;;;4.17;3.90;;;;;;;20.16;95.06;94950.19;4360468;32;20240;-57
2022/08/19 07:39:19;;;;;;;4.20;3.90;;;;;;;19.97;97.27;94947.59;4372333;32;20253;-57
2022/08/19 07:41:46;;;;;;;3.17;2.97;;;;;;;20.11;96.00;94942.44;4356046;32;20181;-56
2022/08/19 07:44:12;;;;;;;4.77;4.37;;;;;;;20.03;96.71;94943.47;4353778;32;20188;-57
2022/08/19 07:46:44;;;;;;;4.07;3.60;;;;;;;20.24;96.63;94951.84;4349259;32;20237;-58
2022/08/19 07:49:14;;;;;;;4.43;4.13;;;;;;;20.21;95.88;94955.25;4358660;32;20211;-56
2022/08/19 07:51:40;;;;;;;4.80;4.53;;;;;;;20.18;95.49;94961.38;4369950;32;20221;-56
2022/08/19 07:54:05;;;;;;;5.60;5.17;;;;;;;20.07;96.14;94971.22;4366457;32;20208;-55
2022/08/19 07:56:31;;;;;;;4.23;4.03;;;;;;;20.06;96.82;94973.13;4351987;32;20185;-57
2022/08/19 07:58:56;;;;;;;3.93;3.63;;;;;;;20.14;96.76;94971.34;4357404;32;20207;-56
2022/08/19 08:01:24;;;;;;;3.43;3.23;;;;;;;20.11;97.01;94963.97;4355738;32;20212;-54
2022/08/19 08:09:26;;;;;;;5.27;4.80;;;;;;;20.03;97.57;94975.78;4370181;32;20203;-54
2022/08/19 08:11:58;;;;;;;4.43;4.00;;;;;;;20.25;96.26;94981.13;4356651;32;20184;-55
2022/08/19 08:14:34;;;;;;;4.60;4.30;;;;;;;20.22;96.34;94981.84;4362333;32;20177;-56
2022/08/19 08:17:00;;;;;;;4.00;3.70;;;;;;;20.10;96.79;94982.06;4344808;32;20203;-54
2022/08/19 08:19:27;;;;;;;5.20;4.77;;;;;;;20.06;96.50;94977.75;4353407;32;20272;-56
2022/08/19 08:21:54;;;;;;;4.03;3.73;;;;;;;20.05;96.85;94986.97;4356002;32;20200;-58
2022/08/19 08:24:20;;;;;;;4.60;4.20;;;;;;;20.14;95.73;94980.19;4359458;32;20173;-57
2022/08/19 08:26:46;;;;;;;21.40;5.23;;;;;;;20.21;95.60;94979.50;4367772;32;20204;-53
2022/08/19 08:29:12;;;;;;;4.20;3.90;;;;;;;20.18;95.58;94985.63;4369779;32;20200;-57
2022/08/19 08:31:42;;;;;;;4.83;4.43;;;;;;;20.18;95.33;94985.63;4359007;32;20220;-56
2022/08/19 08:34:08;;;;;;;3.40;3.30;;;;;;;20.16;94.99;94987.91;4354458;32;20243;-57
2022/08/19 08:36:44;;;;;;;4.40;4.13;;;;;;;20.21;94.59;94988.38;4351127;32;20192;-57
2022/08/19 08:39:18;;;;;;;5.10;4.70;;;;;;;20.30;94.83;94992.72;4357865;32;20222;-56
2022/08/19 08:41:53;;;;;;;5.77;5.13;;;;;;;20.36;94.37;94996.69;4355739;32;20230;-56
2022/08/19 08:44:26;;;;;;;4.23;4.00;;;;;;;20.18;95.07;95001.78;4367356;32;20267;-55
2022/08/19 08:46:58;;;;;;;4.90;4.60;;;;;;;20.25;94.74;95001.87;4362577;32;20240;-55
2022/08/19 08:49:33;;;;;;;3.73;3.53;;;;;;;20.28;95.01;95009.25;4369544;32;20192;-56
2022/08/19 08:52:23;;;;;;;5.67;5.07;;;;;;;20.28;94.95;95011.16;4358674;32;20180;-57
2022/08/19 08:54:51;;;;;;;4.73;4.43;;;;;;;20.16;95.12;95015.59;4367606;32;20216;-57
2022/08/19 08:57:32;;;;;;;4.80;4.50;;;;;;;20.21;95.05;95017.22;4365095;32;20253;-55
2022/08/19 09:00:03;;;;;;;4.67;4.37;;;;;;;20.34;94.53;95010.50;4354531;32;20193;-55
2022/08/19 09:02:28;;;;;;;3.83;3.60;;;;;;;20.32;94.37;95018.19;4362220;32;20189;-54
2022/08/19 09:04:54;;;;;;;4.13;3.93;;;;;;;20.36;94.29;95021.69;4365870;32;20230;-56
2022/08/19 09:07:20;;;;;;;5.37;4.90;;;;;;;20.36;94.79;95024.41;4369532;32;20199;-57
2022/08/19 09:09:49;;;;;;;3.97;3.77;;;;;;;20.43;93.77;95024.50;4368581;32;20204;-56
2022/08/19 09:12:47;;;;;;;4.33;3.93;;;;;;;20.37;94.26;95028.66;4368505;32;20285;-56
2022/08/19 09:15:16;;;;;;;5.57;5.17;;;;;;;20.39;94.27;95018.28;4357494;32;20260;-56
2022/08/19 09:17:41;;;;;;;4.33;4.13;;;;;;;20.35;94.11;95022.06;4357945;32;20173;-55
2022/08/19 09:20:19;;;;;;;3.67;3.57;;;;;;;20.22;95.28;95016.09;4366991;32;20187;-57
2022/08/19 09:22:45;;;;;;;3.63;3.43;;;;;;;20.21;95.34;95022.59;4364362;32;20177;-58
2022/08/19 09:25:15;;;;;;;3.77;3.57;;;;;;;20.22;94.97;95024.16;4358375;32;20184;-57
2022/08/19 09:27:41;;;;;;;12.53;3.83;;;;;;;20.26;94.88;95019.62;4345559;32;20184;-58
2022/08/19 09:30:11;;;;;;;3.17;3.07;;;;;;;20.44;93.06;95017.97;4359062;32;20196;-58
2022/08/19 09:32:37;;;;;;;3.27;3.17;;;;;;;20.36;94.79;95021.69;4347701;32;20225;-56
2022/08/19 09:35:02;;;;;;;4.00;3.70;;;;;;;20.36;95.37;95020.94;4369637;32;20196;-58
2022/08/19 09:37:27;;;;;;;3.30;3.00;;;;;;;20.47;93.86;95019.97;4353708;32;20177;-58
2022/08/19 09:39:53;;;;;;;4.33;3.17;;;;;;;20.32;94.84;95023.56;4362884;32;20282;-58
2022/08/19 09:42:19;;;;;;;4.47;4.07;;;;;;;20.31;94.74;95019.31;4358290;32;20203;-58
2022/08/19 09:44:46;;;;;;;3.87;3.67;;;;;;;20.23;95.37;95017.63;4350067;32;20223;-58
2022/08/19 09:47:13;;;;;;;3.80;3.50;;;;;;;20.23;95.87;95021.09;4351817;32;20216;-54
2022/08/19 09:49:39;;;;;;;3.33;3.13;;;;;;;20.23;96.24;95006.88;4352085;32;20220;-56
2022/08/19 09:52:07;;;;;;;3.97;3.67;;;;;;;20.28;96.18;95009.25;4359578;32;20223;-54
2022/08/19 09:54:33;;;;;;;3.97;3.77;;;;;;;20.38;97.00;95008.66;4365513;32;20244;-54
2022/08/19 09:57:02;;;;;;;3.40;3.20;;;;;;;20.29;98.07;95007.34;4372038;32;20226;-56
2022/08/19 09:59:28;;;;;;;4.73;4.47;;;;;;;20.37;96.86;95009.78;4375404;32;20200;-56
2022/08/19 10:01:54;;;;;;;4.57;4.27;;;;;;;20.29;99.23;95015.41;4354657;32;20267;-56
2022/08/19 10:05:47;;;;;;;6.13;5.53;;;;;;;20.37;99.42;95023.25;4368108;32;20216;-56
2022/08/19 10:07:08;;;;;;;3.87;3.67;;;;;;;20.08;100.00;95030.13;4371370;32;20232;-57
2022/08/19 10:09:34;;;;;;;3.60;3.40;;;;;;;20.23;100.00;95031.09;4370072;32;20249;-63
2022/08/19 10:12:00;;;;;;;4.17;3.30;;;;;;;20.29;98.99;95023.50;4371218;32;20195;-54
2022/08/19 10:14:27;;;;;;;4.27;4.07;;;;;;;20.29;100.00;95029.66;4354824;32;20212;-56
2022/08/19 10:16:52;;;;;;;4.07;3.87;;;;;;;20.48;98.24;95021.50;4362770;32;20209;-57
2022/08/19 10:19:20;;;;;;;3.77;3.57;;;;;;;20.33;100.00;95024.34;4356041;32;20244;-58
2022/08/19 10:21:45;;;;;;;4.27;3.97;;;;;;;20.44;100.00;95026.06;4371016;32;20222;-59
2022/08/19 10:24:10;;;;;;;3.10;2.97;;;;;;;20.64;98.78;95020.56;4362906;32;20182;-55
2022/08/19 10:26:38;;;;;;;4.50;4.10;;;;;;;20.77;98.38;95024.59;4366990;32;20264;-57
2022/08/19 10:29:05;;;;;;;3.47;3.27;;;;;;;20.59;96.83;95022.44;4370583;32;20185;-57
2022/08/19 10:31:32;;;;;;;6.87;3.87;;;;;;;20.66;98.54;95015.59;4359502;32;20177;-59
2022/08/19 10:33:58;;;;;;;4.43;4.13;;;;;;;20.77;98.41;95017.28;4375426;32;20248;-57
2022/08/19 10:36:28;;;;;;;3.03;2.93;;;;;;;20.77;98.62;95003.03;4358558;32;20224;-58
2022/08/19 10:38:58;;;;;;;4.10;3.80;;;;;;;20.68;97.76;95013.31;4357123;32;20181;-57
2022/08/19 10:41:26;;;;;;;4.33;3.83;;;;;;;20.84;96.75;95006.59;4359136;32;20207;-57
2022/08/19 10:43:56;;;;;;;3.13;2.93;;;;;;;21.03;96.39;94999.47;4366023;32;20205;-56
2022/08/19 10:46:26;;;;;;;3.67;3.47;;;;;;;21.09;98.08;95004.19;4371670;32;20311;-55
2022/08/19 10:48:52;;;;;;;4.77;3.90;;;;;;;21.05;96.16;95011.47;4334085;32;20222;-56
2022/08/19 10:54:05;;;;;;;3.80;3.50;;;;;;;20.99;94.45;95006.78;4351431;32;20242;-55
2022/08/19 10:59:32;;;;;;;3.73;3.53;;;;;;;21.08;95.62;95004.56;4258039;32;20196;-58
2022/08/19 11:02:05;;;;;;;4.23;4.03;;;;;;;21.23;94.87;95009.00;4348502;32;20216;-57
2022/08/19 11:04:33;;;;;;;3.27;3.07;;;;;;;21.27;93.23;95012.50;4342639;32;20216;-58
2022/08/19 11:07:00;;;;;;;3.03;2.83;;;;;;;21.21;93.30;95009.34;4333851;32;20204;-56
2022/08/19 11:09:29;;;;;;;3.37;3.20;;;;;;;21.22;94.54;94997.41;4311731;32;20254;-58
2022/08/19 11:11:57;;;;;;;2.23;2.13;;;;;;;21.02;94.97;95004.09;4330704;32;20295;-58
2022/08/19 11:14:25;;;;;;;1.70;1.70;;;;;;;21.05;93.65;94995.28;4323477;32;20216;-56
2022/08/19 11:16:55;;;;;;;2.50;2.40;;;;;;;21.15;94.30;95004.66;4326195;32;20187;-58
2022/08/19 11:19:23;;;;;;;2.23;2.10;;;;;;;21.26;93.31;94986.66;4342263;32;20185;-57
2022/08/19 11:21:50;;;;;;;2.90;2.77;;;;;;;21.41;92.34;94990.28;4359917;32;20271;-58
2022/08/19 11:24:23;;;;;;;3.23;2.93;;;;;;;21.33;92.75;94980.56;4334248;32;20236;-58
2022/08/19 11:26:50;;;;;;;2.77;2.57;;;;;;;21.35;92.22;94986.37;4347417;32;20274;-57
2022/08/19 11:29:25;;;;;;;3.27;2.57;;;;;;;21.22;92.37;94994.72;4332264;32;20191;-60
2022/08/19 11:31:54;;;;;;;2.27;2.17;;;;;;;21.11;92.88;94988.41;4322829;32;20228;-57
2022/08/19 11:34:27;;;;;;;2.73;2.53;;;;;;;21.15;93.39;94989.25;4336477;32;20228;-58
2022/08/19 11:36:54;;;;;;;2.27;2.00;;;;;;;21.21;94.24;94995.09;4320648;32;20182;-58
2022/08/19 11:39:26;;;;;;;3.37;3.13;;;;;;;21.43;92.00;94994.16;4307489;32;20205;-60
2022/08/19 11:41:52;;;;;;;2.33;2.23;;;;;;;21.47;92.24;94994.22;4345435;32;20181;-58
2022/08/19 11:44:20;;;;;;;2.40;2.30;;;;;;;21.47;91.65;94999.59;4338852;32;20185;-58
2022/08/19 11:46:48;;;;;;;3.17;2.97;;;;;;;21.40;91.98;94991.47;4354281;32;20215;-57
2022/08/19 11:49:18;;;;;;;1.73;1.73;;;;;;;21.34;91.68;94993.72;4366261;32;20195;-57
2022/08/19 11:51:45;;;;;;;2.50;2.27;;;;;;;21.23;91.75;94988.19;4324914;32;20228;-59
2022/08/19 11:54:14;;;;;;;1.57;1.57;;;;;;;21.23;90.77;94996.28;4343065;32;20220;-59
2022/08/19 11:56:47;;;;;;;1.60;1.50;;;;;;;21.31;90.20;94996.38;4337256;32;20211;-57
2022/08/19 11:59:14;;;;;;;0.83;0.83;;;;;;;21.12;92.15;94998.06;4330154;32;20208;-56
2022/08/19 12:01:42;;;;;;;0.90;0.90;;;;;;;21.21;92.01;94992.38;4327400;32;20182;-59